PWSweather.com
Personal Weather Stations
Station Observations
AC5CV
Greenleaf Peninsula, Waco, TX 76710

Greenleaf PeninsulaWaco, TX 76710

Lat: 31.565, Lon: -97.198

Elevation: 570

Station Type: Ambient WS2080

http://johnchamber.dyndns.info/

High Low Average
Temperature 84.0°F28.9°F 72.0°F22.2°F 77.3°F25.2°F
Dew Point 72.8°F22.7°F 69.3°F20.7°F 70.9°F21.6°F
Winds 7.2 mph NE11.6 mph NE Calm Calm 2.0 mph 3.2 mph
Wind Gusts 15.0 mph24.1 mph -- 5.4 mph8.7 mph
Humidity 96% 63% 82%
Pressure 29.60 in1002.40 in 29.48 in998.30 in -
Precipitation 3.24 in82.30 in - -
Hour Temp Dew Point Humidity Winds Wind Gusts Pressure Precip Precip Rate Daily Precip Total
12:00 AM 74.5°F23.6°C 72.3°F22.4°C 93% Calm Calm -- 29.54 in1000.3 mb 0.00 in0.0 mm 0.00 in0.0 mm 0.00 in0.0 mm
12:05 AM 74.3°F23.5°C 72.2°F22.3°C 93% Calm Calm -- 29.54 in1000.3 mb 0.00 in0.0 mm 0.00 in0.0 mm 0.00 in0.0 mm
12:10 AM 74.1°F23.4°C 71.9°F22.2°C 93% 0.1 mph NE0.2 kmh NE 2.5 mph4.0 kmh 29.54 in1000.3 mb 0.00 in0.0 mm 0.00 in0.0 mm 0.00 in0.0 mm
12:15 AM 74.1°F23.4°C 71.9°F22.2°C 93% Calm Calm -- 29.55 in1000.7 mb 0.00 in0.0 mm 0.00 in0.0 mm 0.00 in0.0 mm
12:20 AM 74.1°F23.4°C 71.9°F22.2°C 93% Calm Calm -- 29.54 in1000.3 mb 0.00 in0.0 mm 0.00 in0.0 mm 0.00 in0.0 mm
12:25 AM 74.1°F23.4°C 71.9°F22.2°C 93% Calm Calm -- 29.54 in1000.3 mb 0.00 in0.0 mm 0.00 in0.0 mm 0.00 in0.0 mm
12:30 AM 74.1°F23.4°C 71.9°F22.2°C 93% Calm Calm -- 29.54 in1000.3 mb 0.00 in0.0 mm 0.00 in0.0 mm 0.00 in0.0 mm
12:35 AM 73.9°F23.3°C 71.8°F22.1°C 93% Calm Calm -- 29.54 in1000.3 mb 0.00 in0.0 mm 0.00 in0.0 mm 0.00 in0.0 mm
12:40 AM 73.9°F23.3°C 72.1°F22.3°C 94% Calm Calm -- 29.54 in1000.3 mb 0.00 in0.0 mm 0.00 in0.0 mm 0.00 in0.0 mm
12:45 AM 73.8°F23.2°C 72.0°F22.2°C 94% Calm Calm -- 29.54 in1000.3 mb 0.00 in0.0 mm 0.00 in0.0 mm 0.00 in0.0 mm
12:50 AM 73.5°F23.1°C 71.7°F22.1°C 94% Calm Calm -- 29.54 in1000.3 mb 0.00 in0.0 mm 0.00 in0.0 mm 0.00 in0.0 mm
12:55 AM 73.4°F23.0°C 71.6°F22.0°C 94% Calm Calm -- 29.54 in1000.3 mb 0.00 in0.0 mm 0.00 in0.0 mm 0.00 in0.0 mm
01:00 AM 73.4°F23.0°C 71.4°F21.9°C 94% Calm Calm -- 29.54 in1000.3 mb 0.00 in0.0 mm 0.00 in0.0 mm 0.00 in0.0 mm
01:05 AM 73.5°F23.1°C 71.9°F22.2°C 95% Calm Calm -- 29.54 in1000.3 mb 0.00 in0.0 mm 0.00 in0.0 mm 0.00 in0.0 mm
01:10 AM 73.8°F23.2°C 72.3°F22.4°C 95% 0.3 mph NNE0.5 kmh NNE 2.5 mph4.0 kmh 29.54 in1000.3 mb 0.00 in0.0 mm 0.00 in0.0 mm 0.00 in0.0 mm
01:15 AM 73.8°F23.2°C 72.3°F22.4°C 95% 0.8 mph N1.3 kmh N 4.9 mph7.9 kmh 29.54 in1000.3 mb 0.00 in0.0 mm 0.00 in0.0 mm 0.00 in0.0 mm
01:20 AM 73.8°F23.2°C 72.3°F22.4°C 95% 1.0 mph NNE1.6 kmh NNE 2.5 mph4.0 kmh 29.54 in1000.3 mb 0.00 in0.0 mm 0.00 in0.0 mm 0.00 in0.0 mm
01:25 AM 73.9°F23.3°C 72.4°F22.4°C 95% 0.7 mph NNE1.1 kmh NNE 2.5 mph4.0 kmh 29.54 in1000.3 mb 0.00 in0.0 mm 0.00 in0.0 mm 0.00 in0.0 mm
01:30 AM 74.3°F23.5°C 72.8°F22.7°C 95% 0.8 mph N1.3 kmh N 2.5 mph4.0 kmh 29.54 in1000.3 mb 0.00 in0.0 mm 0.00 in0.0 mm 0.00 in0.0 mm
01:35 AM 74.3°F23.5°C 72.8°F22.7°C 95% 0.9 mph NNE1.4 kmh NNE 2.5 mph4.0 kmh 29.54 in1000.3 mb 0.00 in0.0 mm 0.00 in0.0 mm 0.00 in0.0 mm
01:40 AM 74.3°F23.5°C 72.6°F22.6°C 95% 1.1 mph NNE1.8 kmh NNE 4.9 mph7.9 kmh 29.54 in1000.3 mb 0.00 in0.0 mm 0.00 in0.0 mm 0.00 in0.0 mm
01:45 AM 74.3°F23.5°C 72.5°F22.5°C 94% 1.0 mph N1.6 kmh N 2.5 mph4.0 kmh 29.54 in1000.3 mb 0.00 in0.0 mm 0.00 in0.0 mm 0.00 in0.0 mm
01:50 AM 74.4°F23.6°C 72.5°F22.5°C 94% 0.5 mph NNW0.8 kmh NNW 2.5 mph4.0 kmh 29.54 in1000.3 mb 0.00 in0.0 mm 0.00 in0.0 mm 0.00 in0.0 mm
01:55 AM 74.3°F23.5°C 72.5°F22.5°C 94% 0.9 mph N1.4 kmh N 4.9 mph7.9 kmh 29.54 in1000.3 mb 0.00 in0.0 mm 0.00 in0.0 mm 0.00 in0.0 mm
02:00 AM 74.3°F23.5°C 72.5°F22.5°C 94% 0.9 mph NNE1.4 kmh NNE 2.5 mph4.0 kmh 29.54 in1000.3 mb 0.00 in0.0 mm 0.00 in0.0 mm 0.00 in0.0 mm
02:05 AM 74.3°F23.5°C 72.5°F22.5°C 94% 0.8 mph N1.3 kmh N 4.9 mph7.9 kmh 29.54 in1000.3 mb 0.00 in0.0 mm 0.00 in0.0 mm 0.00 in0.0 mm
02:10 AM 74.1°F23.4°C 72.3°F22.4°C 94% 0.4 mph NE0.6 kmh NE 2.5 mph4.0 kmh 29.54 in1000.3 mb 0.00 in0.0 mm 0.00 in0.0 mm 0.00 in0.0 mm
02:15 AM 74.1°F23.4°C 72.3°F22.4°C 94% 1.0 mph NE1.6 kmh NE 2.5 mph4.0 kmh 29.53 in1000.0 mb 0.00 in0.0 mm 0.00 in0.0 mm 0.00 in0.0 mm
02:20 AM 74.1°F23.4°C 72.3°F22.4°C 94% 0.7 mph ENE1.1 kmh ENE 2.5 mph4.0 kmh 29.54 in1000.3 mb 0.00 in0.0 mm 0.00 in0.0 mm 0.00 in0.0 mm
02:25 AM 74.1°F23.4°C 72.3°F22.4°C 94% 0.2 mph ENE0.3 kmh ENE 2.5 mph4.0 kmh 29.54 in1000.3 mb 0.00 in0.0 mm 0.00 in0.0 mm 0.00 in0.0 mm
02:30 AM 74.1°F23.4°C 72.2°F22.3°C 94% 2.4 mph NE3.9 kmh NE 7.4 mph11.9 kmh 29.54 in1000.3 mb 0.00 in0.0 mm 0.00 in0.0 mm 0.00 in0.0 mm
02:35 AM 74.1°F23.4°C 71.9°F22.2°C 93% 1.6 mph NE2.6 kmh NE 4.9 mph7.9 kmh 29.54 in1000.3 mb 0.00 in0.0 mm 0.00 in0.0 mm 0.00 in0.0 mm
02:40 AM 74.1°F23.4°C 71.9°F22.2°C 93% 1.2 mph NE1.9 kmh NE 4.9 mph7.9 kmh 29.53 in1000.0 mb 0.00 in0.0 mm 0.00 in0.0 mm 0.00 in0.0 mm
02:45 AM 74.1°F23.4°C 71.7°F22.1°C 92% 2.6 mph NE4.2 kmh NE 4.9 mph7.9 kmh 29.53 in1000.0 mb 0.00 in0.0 mm 0.00 in0.0 mm 0.00 in0.0 mm
02:50 AM 74.5°F23.6°C 72.0°F22.2°C 92% 0.3 mph NE0.5 kmh NE 2.5 mph4.0 kmh 29.53 in1000.0 mb 0.00 in0.0 mm 0.00 in0.0 mm 0.00 in0.0 mm
02:55 AM 74.5°F23.6°C 72.0°F22.2°C 92% 0.5 mph NE0.8 kmh NE 4.9 mph7.9 kmh 29.53 in1000.0 mb 0.00 in0.0 mm 0.00 in0.0 mm 0.00 in0.0 mm
03:00 AM 74.3°F23.5°C 71.8°F22.1°C 92% 0.3 mph NE0.5 kmh NE 2.5 mph4.0 kmh 29.53 in1000.0 mb 0.00 in0.0 mm 0.00 in0.0 mm 0.00 in0.0 mm
03:05 AM 74.3°F23.5°C 71.8°F22.1°C 92% 0.1 mph NW0.2 kmh NW 2.5 mph4.0 kmh 29.53 in1000.0 mb 0.00 in0.0 mm 0.00 in0.0 mm 0.00 in0.0 mm
03:10 AM 74.4°F23.6°C 71.7°F22.1°C 91% 0.1 mph NE0.2 kmh NE 2.5 mph4.0 kmh 29.53 in1000.0 mb 0.00 in0.0 mm 0.00 in0.0 mm 0.00 in0.0 mm
03:15 AM 74.3°F23.5°C 71.5°F21.9°C 91% 0.2 mph NNW0.3 kmh NNW 2.5 mph4.0 kmh 29.53 in1000.0 mb 0.00 in0.0 mm 0.00 in0.0 mm 0.00 in0.0 mm
03:20 AM 74.3°F23.5°C 71.5°F21.9°C 91% 0.5 mph NNW0.8 kmh NNW 2.5 mph4.0 kmh 29.53 in1000.0 mb 0.00 in0.0 mm 0.00 in0.0 mm 0.00 in0.0 mm
03:25 AM 74.2°F23.4°C 71.4°F21.9°C 91% 0.8 mph NNE1.3 kmh NNE 4.9 mph7.9 kmh 29.53 in1000.0 mb 0.00 in0.0 mm 0.00 in0.0 mm 0.00 in0.0 mm
03:30 AM 74.1°F23.4°C 71.3°F21.8°C 91% 1.1 mph N1.8 kmh N 2.5 mph4.0 kmh 29.53 in1000.0 mb 0.00 in0.0 mm 0.00 in0.0 mm 0.00 in0.0 mm
03:35 AM 74.1°F23.4°C 71.3°F21.8°C 91% 1.1 mph N1.8 kmh N 2.5 mph4.0 kmh 29.53 in1000.0 mb 0.00 in0.0 mm 0.00 in0.0 mm 0.00 in0.0 mm
03:40 AM 74.0°F23.3°C 71.2°F21.8°C 91% 0.8 mph NE1.3 kmh NE 4.9 mph7.9 kmh 29.53 in1000.0 mb 0.00 in0.0 mm 0.00 in0.0 mm 0.00 in0.0 mm
03:45 AM 73.9°F23.3°C 71.2°F21.8°C 91% 0.4 mph N0.6 kmh N 4.9 mph7.9 kmh 29.53 in1000.0 mb 0.00 in0.0 mm 0.00 in0.0 mm 0.00 in0.0 mm
03:50 AM 74.0°F23.3°C 71.5°F21.9°C 92% 0.2 mph NNE0.3 kmh NNE 2.5 mph4.0 kmh 29.53 in1000.0 mb 0.00 in0.0 mm 0.00 in0.0 mm 0.00 in0.0 mm
03:55 AM 73.9°F23.3°C 71.4°F21.9°C 92% 0.5 mph NE0.8 kmh NE 2.5 mph4.0 kmh 29.53 in1000.0 mb 0.00 in0.0 mm 0.00 in0.0 mm 0.00 in0.0 mm
04:00 AM 73.9°F23.3°C 71.4°F21.9°C 92% 2.7 mph ENE4.3 kmh ENE 7.4 mph11.9 kmh 29.54 in1000.3 mb 0.00 in0.0 mm 0.00 in0.0 mm 0.00 in0.0 mm
04:05 AM 73.9°F23.3°C 71.4°F21.9°C 92% 1.3 mph ENE2.1 kmh ENE 4.9 mph7.9 kmh 29.54 in1000.3 mb 0.00 in0.0 mm 0.00 in0.0 mm 0.00 in0.0 mm
04:10 AM 74.1°F23.4°C 71.3°F21.8°C 91% 2.0 mph NE3.2 kmh NE 4.9 mph7.9 kmh 29.53 in1000.0 mb 0.00 in0.0 mm 0.00 in0.0 mm 0.00 in0.0 mm
04:15 AM 74.1°F23.4°C 71.0°F21.7°C 90% 2.3 mph NE3.7 kmh NE 4.9 mph7.9 kmh 29.54 in1000.3 mb 0.00 in0.0 mm 0.00 in0.0 mm 0.00 in0.0 mm
04:20 AM 74.1°F23.4°C 70.6°F21.4°C 89% 3.6 mph E5.8 kmh E 7.4 mph11.9 kmh 29.54 in1000.3 mb 0.00 in0.0 mm 0.00 in0.0 mm 0.00 in0.0 mm
04:25 AM 74.1°F23.4°C 70.6°F21.4°C 89% 2.7 mph NE4.3 kmh NE 4.9 mph7.9 kmh 29.54 in1000.3 mb 0.00 in0.0 mm 0.00 in0.0 mm 0.00 in0.0 mm
04:30 AM 74.4°F23.6°C 70.6°F21.4°C 88% 3.5 mph E5.6 kmh E 9.8 mph15.8 kmh 29.54 in1000.3 mb 0.00 in0.0 mm 0.00 in0.0 mm 0.00 in0.0 mm
04:35 AM 74.5°F23.6°C 70.8°F21.6°C 88% 2.3 mph NE3.7 kmh NE 4.9 mph7.9 kmh 29.54 in1000.3 mb 0.00 in0.0 mm 0.00 in0.0 mm 0.00 in0.0 mm
04:40 AM 74.3°F23.5°C 70.8°F21.6°C 89% 2.9 mph NE4.7 kmh NE 4.9 mph7.9 kmh 29.54 in1000.3 mb 0.00 in0.0 mm 0.00 in0.0 mm 0.00 in0.0 mm
04:45 AM 74.3°F23.5°C 70.6°F21.4°C 88% 2.9 mph NE4.7 kmh NE 7.4 mph11.9 kmh 29.54 in1000.3 mb 0.00 in0.0 mm 0.00 in0.0 mm 0.00 in0.0 mm
04:50 AM 74.3°F23.5°C 70.6°F21.4°C 88% 1.4 mph NE2.3 kmh NE 4.9 mph7.9 kmh 29.54 in1000.3 mb 0.00 in0.0 mm 0.00 in0.0 mm 0.00 in0.0 mm
04:55 AM 74.3°F23.5°C 70.8°F21.6°C 89% 2.2 mph NE3.5 kmh NE 4.9 mph7.9 kmh 29.54 in1000.3 mb 0.00 in0.0 mm 0.00 in0.0 mm 0.00 in0.0 mm
05:00 AM 74.3°F23.5°C 70.8°F21.6°C 89% 0.2 mph N0.3 kmh N 2.5 mph4.0 kmh 29.54 in1000.3 mb 0.00 in0.0 mm 0.00 in0.0 mm 0.00 in0.0 mm
05:05 AM 74.3°F23.5°C 71.1°F21.7°C 90% 1.1 mph NNE1.8 kmh NNE 4.9 mph7.9 kmh 29.54 in1000.3 mb 0.00 in0.0 mm 0.00 in0.0 mm 0.00 in0.0 mm
05:10 AM 74.2°F23.4°C 71.2°F21.8°C 90% 0.3 mph NW0.5 kmh NW 2.5 mph4.0 kmh 29.54 in1000.3 mb 0.00 in0.0 mm 0.00 in0.0 mm 0.00 in0.0 mm
05:15 AM 74.1°F23.4°C 71.3°F21.8°C 91% 2.1 mph N3.4 kmh N 7.4 mph11.9 kmh 29.54 in1000.3 mb 0.00 in0.0 mm 0.00 in0.0 mm 0.00 in0.0 mm
05:20 AM 74.1°F23.4°C 71.6°F22.0°C 92% 0.9 mph NE1.4 kmh NE 2.5 mph4.0 kmh 29.54 in1000.3 mb 0.00 in0.0 mm 0.00 in0.0 mm 0.00 in0.0 mm
05:25 AM 73.9°F23.3°C 71.4°F21.9°C 92% 1.8 mph NE2.9 kmh NE 4.9 mph7.9 kmh 29.54 in1000.3 mb 0.02 in0.5 mm 0.24 in6.1 mm 0.02 in0.5 mm
05:30 AM 73.5°F23.1°C 71.1°F21.7°C 92% 1.7 mph ENE2.7 kmh ENE 4.9 mph7.9 kmh 29.54 in1000.3 mb 0.11 in2.8 mm 1.08 in27.4 mm 0.11 in2.8 mm
05:35 AM 73.2°F22.9°C 70.6°F21.4°C 92% 1.6 mph N2.6 kmh N 4.9 mph7.9 kmh 29.54 in1000.3 mb 0.20 in5.1 mm 1.08 in27.4 mm 0.20 in5.1 mm
05:40 AM 73.2°F22.9°C 70.9°F21.6°C 92% 0.3 mph NW0.5 kmh NW 2.5 mph4.0 kmh 29.54 in1000.3 mb 0.25 in6.4 mm 0.60 in15.2 mm 0.25 in6.4 mm
05:45 AM 73.0°F22.8°C 70.9°F21.6°C 93% 0.8 mph NNE1.3 kmh NNE 2.5 mph4.0 kmh 29.54 in1000.3 mb 0.25 in6.4 mm 0.00 in0.0 mm 0.25 in6.4 mm
05:50 AM 73.0°F22.8°C 70.8°F21.6°C 93% Calm Calm -- 29.54 in1000.3 mb 0.25 in6.4 mm 0.00 in0.0 mm 0.25 in6.4 mm
05:55 AM 72.9°F22.7°C 71.1°F21.7°C 94% 0.4 mph N0.6 kmh N 2.5 mph4.0 kmh 29.54 in1000.3 mb 0.25 in6.4 mm 0.00 in0.0 mm 0.25 in6.4 mm
06:00 AM 72.9°F22.7°C 71.1°F21.7°C 94% 1.0 mph N1.6 kmh N 4.9 mph7.9 kmh 29.54 in1000.3 mb 0.25 in6.4 mm 0.00 in0.0 mm 0.25 in6.4 mm
06:05 AM 72.9°F22.7°C 71.1°F21.7°C 94% 0.8 mph NNE1.3 kmh NNE 2.5 mph4.0 kmh 29.55 in1000.7 mb 0.25 in6.4 mm 0.00 in0.0 mm 0.25 in6.4 mm
06:10 AM 72.9°F22.7°C 71.1°F21.7°C 94% 1.0 mph NNW1.6 kmh NNW 4.9 mph7.9 kmh 29.55 in1000.7 mb 0.25 in6.4 mm 0.00 in0.0 mm 0.25 in6.4 mm
06:15 AM 72.9°F22.7°C 71.1°F21.7°C 94% 0.2 mph WNW0.3 kmh WNW 2.5 mph4.0 kmh 29.55 in1000.7 mb 0.25 in6.4 mm 0.00 in0.0 mm 0.25 in6.4 mm
06:20 AM 72.9°F22.7°C 71.2°F21.8°C 94% 1.1 mph NW1.8 kmh NW 4.9 mph7.9 kmh 29.54 in1000.3 mb 0.25 in6.4 mm 0.00 in0.0 mm 0.25 in6.4 mm
06:25 AM 72.8°F22.7°C 71.3°F21.8°C 95% 0.6 mph NW1.0 kmh NW 2.5 mph4.0 kmh 29.55 in1000.7 mb 0.23 in5.8 mm 0.00 in0.0 mm 0.25 in6.4 mm
06:30 AM 72.7°F22.6°C 71.1°F21.7°C 95% 1.9 mph NW3.1 kmh NW 4.9 mph7.9 kmh 29.55 in1000.7 mb 0.14 in3.6 mm 0.00 in0.0 mm 0.25 in6.4 mm
06:35 AM 72.5°F22.5°C 71.0°F21.7°C 95% 1.0 mph N1.6 kmh N 4.9 mph7.9 kmh 29.55 in1000.7 mb 0.06 in1.5 mm 0.00 in0.0 mm 0.26 in6.6 mm
06:40 AM 72.5°F22.5°C 71.0°F21.7°C 95% 0.9 mph NNW1.4 kmh NNW 2.5 mph4.0 kmh 29.55 in1000.7 mb 0.01 in0.3 mm 0.00 in0.0 mm 0.26 in6.6 mm
06:45 AM 72.5°F22.5°C 71.0°F21.7°C 95% 0.8 mph N1.3 kmh N 4.9 mph7.9 kmh 29.55 in1000.7 mb 0.01 in0.3 mm 0.00 in0.0 mm 0.26 in6.6 mm
06:50 AM 72.5°F22.5°C 70.9°F21.6°C 95% 0.5 mph NNW0.8 kmh NNW 2.5 mph4.0 kmh 29.56 in1001.0 mb 0.02 in0.5 mm 0.12 in3.0 mm 0.27 in6.9 mm
06:55 AM 72.3°F22.4°C 70.8°F21.6°C 95% 0.5 mph NNW0.8 kmh NNW 2.5 mph4.0 kmh 29.55 in1000.7 mb 0.02 in0.5 mm 0.00 in0.0 mm 0.27 in6.9 mm
07:00 AM 72.3°F22.4°C 70.8°F21.6°C 95% 1.0 mph N1.6 kmh N 4.9 mph7.9 kmh 29.56 in1001.0 mb 0.02 in0.5 mm 0.00 in0.0 mm 0.27 in6.9 mm
07:05 AM 72.2°F22.3°C 70.7°F21.5°C 95% Calm Calm 2.5 mph4.0 kmh 29.56 in1001.0 mb 0.02 in0.5 mm 0.00 in0.0 mm 0.27 in6.9 mm
07:10 AM 72.2°F22.3°C 70.7°F21.5°C 95% 0.2 mph NNW0.3 kmh NNW 2.5 mph4.0 kmh 29.56 in1001.0 mb 0.02 in0.5 mm 0.00 in0.0 mm 0.27 in6.9 mm
07:15 AM 72.1°F22.3°C 70.6°F21.4°C 95% 0.5 mph NW0.8 kmh NW 2.5 mph4.0 kmh 29.56 in1001.0 mb 0.02 in0.5 mm 0.00 in0.0 mm 0.27 in6.9 mm
07:20 AM 72.1°F22.3°C 70.6°F21.4°C 95% 0.6 mph N1.0 kmh N 2.5 mph4.0 kmh 29.56 in1001.0 mb 0.02 in0.5 mm 0.00 in0.0 mm 0.27 in6.9 mm
07:25 AM 72.1°F22.3°C 70.6°F21.4°C 95% 0.7 mph NNE1.1 kmh NNE 2.5 mph4.0 kmh 29.56 in1001.0 mb 0.02 in0.5 mm 0.00 in0.0 mm 0.27 in6.9 mm
07:30 AM 72.0°F22.2°C 70.5°F21.4°C 95% 1.2 mph N1.9 kmh N 4.9 mph7.9 kmh 29.56 in1001.0 mb 0.02 in0.5 mm 0.00 in0.0 mm 0.27 in6.9 mm
07:35 AM 72.0°F22.2°C 70.5°F21.4°C 95% 0.8 mph NNE1.3 kmh NNE 2.5 mph4.0 kmh 29.56 in1001.0 mb 0.01 in0.3 mm 0.00 in0.0 mm 0.27 in6.9 mm
07:40 AM 72.0°F22.2°C 70.5°F21.4°C 95% 1.0 mph N1.6 kmh N 2.5 mph4.0 kmh 29.56 in1001.0 mb 0.01 in0.3 mm 0.00 in0.0 mm 0.27 in6.9 mm
07:45 AM 72.1°F22.3°C 70.6°F21.4°C 95% 0.1 mph N0.2 kmh N 2.5 mph4.0 kmh 29.56 in1001.0 mb 0.01 in0.3 mm 0.00 in0.0 mm 0.27 in6.9 mm
07:50 AM 72.1°F22.3°C 70.6°F21.4°C 95% 1.0 mph N1.6 kmh N 2.5 mph4.0 kmh 29.57 in1001.4 mb 0.00 in0.0 mm 0.00 in0.0 mm 0.27 in6.9 mm
07:55 AM 72.1°F22.3°C 70.6°F21.4°C 95% 0.3 mph NNE0.5 kmh NNE 2.5 mph4.0 kmh 29.57 in1001.4 mb 0.00 in0.0 mm 0.00 in0.0 mm 0.27 in6.9 mm
08:00 AM 72.1°F22.3°C 70.6°F21.4°C 95% 1.1 mph NE1.8 kmh NE 4.9 mph7.9 kmh 29.56 in1001.0 mb 0.00 in0.0 mm 0.00 in0.0 mm 0.27 in6.9 mm
08:05 AM 72.1°F22.3°C 70.6°F21.4°C 95% 1.6 mph NE2.6 kmh NE 4.9 mph7.9 kmh 29.57 in1001.4 mb 0.00 in0.0 mm 0.00 in0.0 mm 0.27 in6.9 mm
08:10 AM 72.2°F22.3°C 70.7°F21.5°C 95% 0.7 mph N1.1 kmh N 2.5 mph4.0 kmh 29.57 in1001.4 mb 0.00 in0.0 mm 0.00 in0.0 mm 0.27 in6.9 mm
08:15 AM 72.5°F22.5°C 71.0°F21.7°C 95% 2.0 mph E3.2 kmh E 4.9 mph7.9 kmh 29.57 in1001.4 mb 0.00 in0.0 mm 0.00 in0.0 mm 0.27 in6.9 mm
08:20 AM 72.5°F22.5°C 71.0°F21.7°C 95% 1.4 mph NE2.3 kmh NE 4.9 mph7.9 kmh 29.57 in1001.4 mb 0.00 in0.0 mm 0.00 in0.0 mm 0.27 in6.9 mm
08:25 AM 72.5°F22.5°C 71.0°F21.7°C 95% 0.8 mph NE1.3 kmh NE 4.9 mph7.9 kmh 29.57 in1001.4 mb 0.00 in0.0 mm 0.00 in0.0 mm 0.27 in6.9 mm
08:30 AM 72.5°F22.5°C 71.0°F21.7°C 95% 1.8 mph NE2.9 kmh NE 4.9 mph7.9 kmh 29.57 in1001.4 mb 0.00 in0.0 mm 0.00 in0.0 mm 0.27 in6.9 mm
08:35 AM 72.7°F22.6°C 71.2°F21.8°C 95% 0.2 mph NE0.3 kmh NE 2.5 mph4.0 kmh 29.57 in1001.4 mb 0.00 in0.0 mm 0.00 in0.0 mm 0.27 in6.9 mm
08:40 AM 72.7°F22.6°C 71.4°F21.9°C 96% 1.5 mph NE2.4 kmh NE 4.9 mph7.9 kmh 29.58 in1001.7 mb 0.00 in0.0 mm 0.00 in0.0 mm 0.27 in6.9 mm
08:45 AM 72.7°F22.6°C 71.2°F21.8°C 95% 1.5 mph NNE2.4 kmh NNE 7.4 mph11.9 kmh 29.57 in1001.4 mb 0.00 in0.0 mm 0.00 in0.0 mm 0.27 in6.9 mm
08:50 AM 72.7°F22.6°C 71.2°F21.8°C 95% 1.5 mph NE2.4 kmh NE 4.9 mph7.9 kmh 29.58 in1001.7 mb 0.00 in0.0 mm 0.00 in0.0 mm 0.27 in6.9 mm
08:55 AM 72.9°F22.7°C 71.5°F21.9°C 95% 0.2 mph N0.3 kmh N 2.5 mph4.0 kmh 29.58 in1001.7 mb 0.00 in0.0 mm 0.00 in0.0 mm 0.27 in6.9 mm
09:00 AM 72.9°F22.7°C 71.4°F21.9°C 95% 2.0 mph N3.2 kmh N 4.9 mph7.9 kmh 29.58 in1001.7 mb 0.00 in0.0 mm 0.00 in0.0 mm 0.27 in6.9 mm
09:05 AM 72.9°F22.7°C 71.4°F21.9°C 95% 1.3 mph NE2.1 kmh NE 7.4 mph11.9 kmh 29.58 in1001.7 mb 0.00 in0.0 mm 0.00 in0.0 mm 0.27 in6.9 mm
09:10 AM 72.9°F22.7°C 71.6°F22.0°C 96% 0.5 mph NE0.8 kmh NE 2.5 mph4.0 kmh 29.58 in1001.7 mb 0.00 in0.0 mm 0.00 in0.0 mm 0.27 in6.9 mm
09:15 AM 73.2°F22.9°C 71.9°F22.2°C 96% 1.5 mph NE2.4 kmh NE 2.5 mph4.0 kmh 29.59 in1002.0 mb 0.00 in0.0 mm 0.00 in0.0 mm 0.27 in6.9 mm
09:20 AM 73.2°F22.9°C 72.0°F22.2°C 96% 1.8 mph ENE2.9 kmh ENE 4.9 mph7.9 kmh 29.59 in1002.0 mb 0.00 in0.0 mm 0.00 in0.0 mm 0.27 in6.9 mm
09:25 AM 73.2°F22.9°C 72.0°F22.2°C 96% 1.1 mph NE1.8 kmh NE 2.5 mph4.0 kmh 29.59 in1002.0 mb 0.00 in0.0 mm 0.00 in0.0 mm 0.27 in6.9 mm
09:30 AM 73.2°F22.9°C 72.0°F22.2°C 96% 2.6 mph N4.2 kmh N 7.4 mph11.9 kmh 29.59 in1002.0 mb 0.00 in0.0 mm 0.00 in0.0 mm 0.27 in6.9 mm
09:35 AM 73.4°F23.0°C 72.2°F22.3°C 96% 2.1 mph NE3.4 kmh NE 4.9 mph7.9 kmh 29.58 in1001.7 mb 0.00 in0.0 mm 0.00 in0.0 mm 0.27 in6.9 mm
09:40 AM 73.4°F23.0°C 72.2°F22.3°C 96% 0.6 mph NE1.0 kmh NE 2.5 mph4.0 kmh 29.59 in1002.0 mb 0.00 in0.0 mm 0.00 in0.0 mm 0.27 in6.9 mm
09:45 AM 73.5°F23.1°C 72.2°F22.3°C 96% 1.9 mph NNE3.1 kmh NNE 7.4 mph11.9 kmh 29.59 in1002.0 mb 0.00 in0.0 mm 0.00 in0.0 mm 0.27 in6.9 mm
09:50 AM 73.7°F23.2°C 72.2°F22.3°C 95% 3.2 mph ENE5.1 kmh ENE 9.8 mph15.8 kmh 29.59 in1002.0 mb 0.00 in0.0 mm 0.00 in0.0 mm 0.27 in6.9 mm
09:55 AM 74.5°F23.6°C 72.5°F22.5°C 93% 3.6 mph NNE5.8 kmh NNE 7.4 mph11.9 kmh 29.58 in1001.7 mb 0.00 in0.0 mm 0.00 in0.0 mm 0.27 in6.9 mm
10:00 AM 74.5°F23.6°C 72.1°F22.3°C 92% 2.9 mph NE4.7 kmh NE 7.4 mph11.9 kmh 29.59 in1002.0 mb 0.00 in0.0 mm 0.00 in0.0 mm 0.27 in6.9 mm
10:05 AM 74.5°F23.6°C 72.0°F22.2°C 92% 2.7 mph NNE4.3 kmh NNE 7.4 mph11.9 kmh 29.59 in1002.0 mb 0.00 in0.0 mm 0.00 in0.0 mm 0.27 in6.9 mm
10:10 AM 74.5°F23.6°C 72.0°F22.2°C 92% 2.2 mph NE3.5 kmh NE 4.9 mph7.9 kmh 29.59 in1002.0 mb 0.00 in0.0 mm 0.00 in0.0 mm 0.27 in6.9 mm
10:15 AM 74.7°F23.7°C 71.7°F22.1°C 90% 2.5 mph NE4.0 kmh NE 7.4 mph11.9 kmh 29.59 in1002.0 mb 0.00 in0.0 mm 0.00 in0.0 mm 0.27 in6.9 mm
10:20 AM 75.0°F23.9°C 71.8°F22.1°C 90% 0.9 mph NE1.4 kmh NE 4.9 mph7.9 kmh 29.59 in1002.0 mb 0.00 in0.0 mm 0.00 in0.0 mm 0.27 in6.9 mm
10:25 AM 75.0°F23.9°C 71.4°F21.9°C 88% 3.5 mph NNE5.6 kmh NNE 9.8 mph15.8 kmh 29.59 in1002.0 mb 0.00 in0.0 mm 0.00 in0.0 mm 0.27 in6.9 mm
10:30 AM 75.1°F23.9°C 71.3°F21.8°C 88% 2.4 mph NNE3.9 kmh NNE 7.4 mph11.9 kmh 29.59 in1002.0 mb 0.00 in0.0 mm 0.00 in0.0 mm 0.27 in6.9 mm
10:35 AM 75.5°F24.2°C 71.7°F22.1°C 88% 3.9 mph NE6.3 kmh NE 7.4 mph11.9 kmh 29.59 in1002.0 mb 0.00 in0.0 mm 0.00 in0.0 mm 0.27 in6.9 mm
10:40 AM 75.4°F24.1°C 71.6°F22.0°C 88% 2.5 mph NE4.0 kmh NE 7.4 mph11.9 kmh 29.59 in1002.0 mb 0.00 in0.0 mm 0.00 in0.0 mm 0.27 in6.9 mm
10:45 AM 75.5°F24.2°C 71.5°F21.9°C 88% 2.1 mph NE3.4 kmh NE 4.9 mph7.9 kmh 29.59 in1002.0 mb 0.00 in0.0 mm 0.00 in0.0 mm 0.27 in6.9 mm
10:50 AM 75.6°F24.2°C 71.2°F21.8°C 86% 2.3 mph E3.7 kmh E 4.9 mph7.9 kmh 29.59 in1002.0 mb 0.00 in0.0 mm 0.00 in0.0 mm 0.27 in6.9 mm
10:55 AM 76.4°F24.7°C 71.2°F21.8°C 84% 3.8 mph E6.1 kmh E 9.8 mph15.8 kmh 29.59 in1002.0 mb 0.00 in0.0 mm 0.00 in0.0 mm 0.27 in6.9 mm
11:00 AM 76.8°F24.9°C 70.8°F21.6°C 82% 3.4 mph ENE5.5 kmh ENE 4.9 mph7.9 kmh 29.60 in1002.4 mb 0.00 in0.0 mm 0.00 in0.0 mm 0.27 in6.9 mm
11:05 AM 76.9°F24.9°C 69.8°F21.0°C 79% 3.1 mph E5.0 kmh E 7.4 mph11.9 kmh 29.59 in1002.0 mb 0.00 in0.0 mm 0.00 in0.0 mm 0.27 in6.9 mm
11:10 AM 77.1°F25.1°C 69.3°F20.7°C 77% 3.4 mph NE5.5 kmh NE 7.4 mph11.9 kmh 29.59 in1002.0 mb 0.00 in0.0 mm 0.00 in0.0 mm 0.27 in6.9 mm
11:15 AM 77.8°F25.4°C 69.9°F21.1°C 77% 3.6 mph NE5.8 kmh NE 7.4 mph11.9 kmh 29.59 in1002.0 mb 0.00 in0.0 mm 0.00 in0.0 mm 0.27 in6.9 mm
11:20 AM 78.1°F25.6°C 70.4°F21.3°C 77% 2.7 mph NE4.3 kmh NE 4.9 mph7.9 kmh 29.59 in1002.0 mb 0.00 in0.0 mm 0.00 in0.0 mm 0.27 in6.9 mm
11:25 AM 78.1°F25.6°C 70.5°F21.4°C 78% 2.1 mph E3.4 kmh E 4.9 mph7.9 kmh 29.59 in1002.0 mb 0.00 in0.0 mm 0.00 in0.0 mm 0.27 in6.9 mm
11:30 AM 77.9°F25.5°C 70.7°F21.5°C 78% 3.5 mph E5.6 kmh E 7.4 mph11.9 kmh 29.59 in1002.0 mb 0.00 in0.0 mm 0.00 in0.0 mm 0.27 in6.9 mm
11:35 AM 77.7°F25.4°C 70.5°F21.4°C 79% 2.7 mph NE4.3 kmh NE 4.9 mph7.9 kmh 29.59 in1002.0 mb 0.00 in0.0 mm 0.00 in0.0 mm 0.27 in6.9 mm
11:40 AM 77.5°F25.3°C 70.0°F21.1°C 78% 4.6 mph E7.4 kmh E 9.8 mph15.8 kmh 29.59 in1002.0 mb 0.00 in0.0 mm 0.00 in0.0 mm 0.27 in6.9 mm
11:45 AM 77.5°F25.3°C 70.0°F21.1°C 78% 3.7 mph ENE6.0 kmh ENE 4.9 mph7.9 kmh 29.60 in1002.4 mb 0.00 in0.0 mm 0.00 in0.0 mm 0.27 in6.9 mm
11:50 AM 77.5°F25.3°C 69.6°F20.9°C 77% 4.1 mph E6.6 kmh E 7.4 mph11.9 kmh 29.59 in1002.0 mb 0.00 in0.0 mm 0.00 in0.0 mm 0.27 in6.9 mm
11:55 AM 78.2°F25.7°C 69.9°F21.1°C 76% 2.0 mph ENE3.2 kmh ENE 4.9 mph7.9 kmh 29.59 in1002.0 mb 0.00 in0.0 mm 0.00 in0.0 mm 0.27 in6.9 mm
12:00 PM 79.0°F26.1°C 70.2°F21.2°C 74% 1.9 mph NE3.1 kmh NE 4.9 mph7.9 kmh 29.59 in1002.0 mb 0.00 in0.0 mm 0.00 in0.0 mm 0.27 in6.9 mm
12:05 PM 79.0°F26.1°C 70.8°F21.6°C 76% 2.9 mph NE4.7 kmh NE 7.4 mph11.9 kmh 29.59 in1002.0 mb 0.00 in0.0 mm 0.00 in0.0 mm 0.27 in6.9 mm
12:10 PM 78.8°F26.0°C 70.4°F21.3°C 76% 0.7 mph ENE1.1 kmh ENE 4.9 mph7.9 kmh 29.59 in1002.0 mb 0.00 in0.0 mm 0.00 in0.0 mm 0.27 in6.9 mm
12:15 PM 79.1°F26.2°C 70.1°F21.2°C 74% 1.5 mph NE2.4 kmh NE 4.9 mph7.9 kmh 29.59 in1002.0 mb 0.00 in0.0 mm 0.00 in0.0 mm 0.27 in6.9 mm
12:20 PM 79.6°F26.4°C 70.5°F21.4°C 74% 3.9 mph NE6.3 kmh NE 7.4 mph11.9 kmh 29.58 in1001.7 mb 0.00 in0.0 mm 0.00 in0.0 mm 0.27 in6.9 mm
12:25 PM 79.5°F26.4°C 70.6°F21.4°C 74% 2.5 mph NNE4.0 kmh NNE 7.4 mph11.9 kmh 29.58 in1001.7 mb 0.00 in0.0 mm 0.00 in0.0 mm 0.27 in6.9 mm
12:30 PM 79.4°F26.3°C 71.3°F21.8°C 76% 2.8 mph NNE4.5 kmh NNE 4.9 mph7.9 kmh 29.58 in1001.7 mb 0.00 in0.0 mm 0.00 in0.0 mm 0.27 in6.9 mm
12:35 PM 79.3°F26.3°C 71.0°F21.7°C 76% 3.4 mph NE5.5 kmh NE 9.8 mph15.8 kmh 29.58 in1001.7 mb 0.00 in0.0 mm 0.00 in0.0 mm 0.27 in6.9 mm
12:40 PM 79.2°F26.2°C 71.0°F21.7°C 76% 2.4 mph N3.9 kmh N 4.9 mph7.9 kmh 29.58 in1001.7 mb 0.00 in0.0 mm 0.00 in0.0 mm 0.27 in6.9 mm
12:45 PM 79.2°F26.2°C 70.7°F21.5°C 75% 3.8 mph N6.1 kmh N 7.4 mph11.9 kmh 29.58 in1001.7 mb 0.00 in0.0 mm 0.00 in0.0 mm 0.27 in6.9 mm
12:50 PM 79.2°F26.2°C 70.2°F21.2°C 74% 2.4 mph NNE3.9 kmh NNE 7.4 mph11.9 kmh 29.58 in1001.7 mb 0.00 in0.0 mm 0.00 in0.0 mm 0.27 in6.9 mm
12:55 PM 79.6°F26.4°C 69.9°F21.1°C 72% 3.2 mph N5.1 kmh N 7.4 mph11.9 kmh 29.58 in1001.7 mb 0.00 in0.0 mm 0.00 in0.0 mm 0.27 in6.9 mm
01:00 PM 80.1°F26.7°C 70.6°F21.4°C 73% 4.2 mph N6.8 kmh N 7.4 mph11.9 kmh 29.58 in1001.7 mb 0.00 in0.0 mm 0.00 in0.0 mm 0.27 in6.9 mm
01:05 PM 80.1°F26.7°C 70.6°F21.4°C 73% 3.8 mph N6.1 kmh N 7.4 mph11.9 kmh 29.58 in1001.7 mb 0.00 in0.0 mm 0.00 in0.0 mm 0.27 in6.9 mm
01:10 PM 80.1°F26.7°C 70.0°F21.1°C 71% 1.8 mph NE2.9 kmh NE 4.9 mph7.9 kmh 29.58 in1001.7 mb 0.00 in0.0 mm 0.00 in0.0 mm 0.27 in6.9 mm
01:15 PM 80.1°F26.7°C 69.8°F21.0°C 71% 2.6 mph N4.2 kmh N 7.4 mph11.9 kmh 29.57 in1001.4 mb 0.00 in0.0 mm 0.00 in0.0 mm 0.27 in6.9 mm
01:20 PM 79.7°F26.5°C 70.5°F21.4°C 74% 1.5 mph NNE2.4 kmh NNE 4.9 mph7.9 kmh 29.57 in1001.4 mb 0.00 in0.0 mm 0.00 in0.0 mm 0.27 in6.9 mm
01:25 PM 79.7°F26.5°C 70.9°F21.6°C 74% 2.5 mph NE4.0 kmh NE 7.4 mph11.9 kmh 29.57 in1001.4 mb 0.00 in0.0 mm 0.00 in0.0 mm 0.27 in6.9 mm
01:30 PM 79.5°F26.4°C 71.1°F21.7°C 76% 2.3 mph N3.7 kmh N 4.9 mph7.9 kmh 29.57 in1001.4 mb 0.00 in0.0 mm 0.00 in0.0 mm 0.27 in6.9 mm
01:35 PM 79.5°F26.4°C 71.2°F21.8°C 76% 1.7 mph N2.7 kmh N 4.9 mph7.9 kmh 29.57 in1001.4 mb 0.00 in0.0 mm 0.00 in0.0 mm 0.27 in6.9 mm
01:40 PM 79.7°F26.5°C 70.7°F21.5°C 74% 3.1 mph NNE5.0 kmh NNE 9.8 mph15.8 kmh 29.57 in1001.4 mb 0.00 in0.0 mm 0.00 in0.0 mm 0.27 in6.9 mm
01:45 PM 79.6°F26.4°C 70.5°F21.4°C 74% 2.8 mph N4.5 kmh N 4.9 mph7.9 kmh 29.57 in1001.4 mb 0.00 in0.0 mm 0.00 in0.0 mm 0.27 in6.9 mm
01:50 PM 79.5°F26.4°C 70.4°F21.3°C 74% 2.8 mph N4.5 kmh N 7.4 mph11.9 kmh 29.57 in1001.4 mb 0.00 in0.0 mm 0.00 in0.0 mm 0.27 in6.9 mm
01:55 PM 79.4°F26.3°C 70.6°F21.4°C 75% 1.5 mph N2.4 kmh N 4.9 mph7.9 kmh 29.56 in1001.0 mb 0.00 in0.0 mm 0.00 in0.0 mm 0.27 in6.9 mm
02:00 PM 79.7°F26.5°C 70.3°F21.3°C 73% 1.3 mph N2.1 kmh N 4.9 mph7.9 kmh 29.56 in1001.0 mb 0.00 in0.0 mm 0.00 in0.0 mm 0.27 in6.9 mm
02:05 PM 79.8°F26.6°C 69.7°F20.9°C 72% 1.4 mph NE2.3 kmh NE 4.9 mph7.9 kmh 29.57 in1001.4 mb 0.00 in0.0 mm 0.00 in0.0 mm 0.27 in6.9 mm
02:10 PM 80.0°F26.7°C 69.5°F20.8°C 70% 4.3 mph NE6.9 kmh NE 9.8 mph15.8 kmh 29.56 in1001.0 mb 0.00 in0.0 mm 0.00 in0.0 mm 0.27 in6.9 mm
02:15 PM 80.3°F26.8°C 69.7°F20.9°C 70% 1.0 mph N1.6 kmh N 4.9 mph7.9 kmh 29.56 in1001.0 mb 0.00 in0.0 mm 0.00 in0.0 mm 0.27 in6.9 mm
02:20 PM 81.0°F27.2°C 70.2°F21.2°C 70% 1.0 mph NE1.6 kmh NE 2.5 mph4.0 kmh 29.56 in1001.0 mb 0.00 in0.0 mm 0.00 in0.0 mm 0.27 in6.9 mm
02:25 PM 81.1°F27.3°C 69.8°F21.0°C 69% 3.0 mph E4.8 kmh E 4.9 mph7.9 kmh 29.56 in1001.0 mb 0.00 in0.0 mm 0.00 in0.0 mm 0.27 in6.9 mm
02:30 PM 81.2°F27.3°C 69.6°F20.9°C 68% 1.5 mph N2.4 kmh N 4.9 mph7.9 kmh 29.55 in1000.7 mb 0.00 in0.0 mm 0.00 in0.0 mm 0.27 in6.9 mm
02:35 PM 81.4°F27.4°C 70.7°F21.5°C 70% 2.6 mph NNE4.2 kmh NNE 9.8 mph15.8 kmh 29.56 in1001.0 mb 0.00 in0.0 mm 0.00 in0.0 mm 0.27 in6.9 mm
02:40 PM 81.1°F27.3°C 70.8°F21.6°C 71% 2.6 mph NE4.2 kmh NE 7.4 mph11.9 kmh 29.55 in1000.7 mb 0.00 in0.0 mm 0.00 in0.0 mm 0.27 in6.9 mm
02:45 PM 81.1°F27.3°C 71.2°F21.8°C 72% 2.1 mph NNE3.4 kmh NNE 4.9 mph7.9 kmh 29.55 in1000.7 mb 0.00 in0.0 mm 0.00 in0.0 mm 0.27 in6.9 mm
02:50 PM 81.0°F27.2°C 71.1°F21.7°C 72% 4.3 mph NNE6.9 kmh NNE 9.8 mph15.8 kmh 29.55 in1000.7 mb 0.00 in0.0 mm 0.00 in0.0 mm 0.27 in6.9 mm
02:55 PM 81.0°F27.2°C 70.7°F21.5°C 71% 2.1 mph NNE3.4 kmh NNE 4.9 mph7.9 kmh 29.55 in1000.7 mb 0.00 in0.0 mm 0.00 in0.0 mm 0.27 in6.9 mm
03:00 PM 81.0°F27.2°C 70.7°F21.5°C 71% 3.8 mph NNE6.1 kmh NNE 7.4 mph11.9 kmh 29.55 in1000.7 mb 0.00 in0.0 mm 0.00 in0.0 mm 0.27 in6.9 mm
03:05 PM 81.0°F27.2°C 70.2°F21.2°C 70% 3.8 mph N6.1 kmh N 9.8 mph15.8 kmh 29.55 in1000.7 mb 0.00 in0.0 mm 0.00 in0.0 mm 0.27 in6.9 mm
03:10 PM 81.2°F27.3°C 69.7°F20.9°C 68% 3.3 mph N5.3 kmh N 4.9 mph7.9 kmh 29.55 in1000.7 mb 0.00 in0.0 mm 0.00 in0.0 mm 0.27 in6.9 mm
03:15 PM 81.6°F27.6°C 69.6°F20.9°C 67% 3.9 mph ENE6.3 kmh ENE 9.8 mph15.8 kmh 29.55 in1000.7 mb 0.00 in0.0 mm 0.00 in0.0 mm 0.27 in6.9 mm
03:20 PM 83.7°F28.7°C 70.9°F21.6°C 66% 4.8 mph NNE7.7 kmh NNE 9.8 mph15.8 kmh 29.55 in1000.7 mb 0.00 in0.0 mm 0.00 in0.0 mm 0.27 in6.9 mm
03:25 PM 83.6°F28.7°C 71.2°F21.8°C 66% 3.8 mph NW6.1 kmh NW 9.8 mph15.8 kmh 29.54 in1000.3 mb 0.00 in0.0 mm 0.00 in0.0 mm 0.27 in6.9 mm
03:30 PM 83.5°F28.6°C 70.9°F21.6°C 66% 4.9 mph NNE7.9 kmh NNE 7.4 mph11.9 kmh 29.54 in1000.3 mb 0.00 in0.0 mm 0.00 in0.0 mm 0.27 in6.9 mm
03:35 PM 83.4°F28.6°C 70.9°F21.6°C 66% 7.2 mph NE11.6 kmh NE 12.3 mph19.8 kmh 29.54 in1000.3 mb 0.00 in0.0 mm 0.00 in0.0 mm 0.27 in6.9 mm
03:40 PM 82.5°F28.1°C 70.1°F21.2°C 66% 3.9 mph NNE6.3 kmh NNE 9.8 mph15.8 kmh 29.54 in1000.3 mb 0.00 in0.0 mm 0.00 in0.0 mm 0.27 in6.9 mm
03:45 PM 82.6°F28.1°C 70.5°F21.4°C 67% 3.2 mph NE5.1 kmh NE 7.4 mph11.9 kmh 29.54 in1000.3 mb 0.00 in0.0 mm 0.00 in0.0 mm 0.27 in6.9 mm
03:50 PM 82.4°F28.0°C 71.0°F21.7°C 68% 2.1 mph NNE3.4 kmh NNE 4.9 mph7.9 kmh 29.53 in1000.0 mb 0.00 in0.0 mm 0.00 in0.0 mm 0.27 in6.9 mm
03:55 PM 82.4°F28.0°C 71.0°F21.7°C 69% 2.9 mph NE4.7 kmh NE 4.9 mph7.9 kmh 29.53 in1000.0 mb 0.00 in0.0 mm 0.00 in0.0 mm 0.27 in6.9 mm
04:00 PM 82.8°F28.2°C 71.1°F21.7°C 68% 3.4 mph NE5.5 kmh NE 9.8 mph15.8 kmh 29.54 in1000.3 mb 0.00 in0.0 mm 0.00 in0.0 mm 0.27 in6.9 mm
04:05 PM 82.8°F28.2°C 70.9°F21.6°C 67% 3.2 mph NE5.1 kmh NE 7.4 mph11.9 kmh 29.53 in1000.0 mb 0.00 in0.0 mm 0.00 in0.0 mm 0.27 in6.9 mm
04:10 PM 82.8°F28.2°C 70.6°F21.4°C 67% 3.1 mph NE5.0 kmh NE 7.4 mph11.9 kmh 29.53 in1000.0 mb 0.00 in0.0 mm 0.00 in0.0 mm 0.27 in6.9 mm
04:15 PM 82.8°F28.2°C 70.7°F21.5°C 67% 5.6 mph N9.0 kmh N 9.8 mph15.8 kmh 29.53 in1000.0 mb 0.00 in0.0 mm 0.00 in0.0 mm 0.27 in6.9 mm
04:20 PM 82.4°F28.0°C 70.6°F21.4°C 68% 3.4 mph NNE5.5 kmh NNE 4.9 mph7.9 kmh 29.53 in1000.0 mb 0.00 in0.0 mm 0.00 in0.0 mm 0.27 in6.9 mm
04:25 PM 82.5°F28.1°C 69.8°F21.0°C 66% 5.1 mph N8.2 kmh N 15.0 mph24.1 kmh 29.52 in999.7 mb 0.00 in0.0 mm 0.00 in0.0 mm 0.27 in6.9 mm
04:30 PM 82.6°F28.1°C 69.8°F21.0°C 65% 2.7 mph NNE4.3 kmh NNE 4.9 mph7.9 kmh 29.52 in999.7 mb 0.00 in0.0 mm 0.00 in0.0 mm 0.27 in6.9 mm
04:35 PM 82.8°F28.2°C 69.6°F20.9°C 64% 4.4 mph NE7.1 kmh NE 12.3 mph19.8 kmh 29.52 in999.7 mb 0.00 in0.0 mm 0.00 in0.0 mm 0.27 in6.9 mm
04:40 PM 84.0°F28.9°C 70.1°F21.2°C 63% 3.3 mph NE5.3 kmh NE 7.4 mph11.9 kmh 29.52 in999.7 mb 0.00 in0.0 mm 0.00 in0.0 mm 0.27 in6.9 mm
04:45 PM 84.0°F28.9°C 70.6°F21.4°C 64% 5.6 mph NNE9.0 kmh NNE 9.8 mph15.8 kmh 29.52 in999.7 mb 0.00 in0.0 mm 0.00 in0.0 mm 0.27 in6.9 mm
04:50 PM 84.0°F28.9°C 70.7°F21.5°C 64% 6.8 mph NNE10.9 kmh NNE 12.3 mph19.8 kmh 29.51 in999.3 mb 0.00 in0.0 mm 0.00 in0.0 mm 0.27 in6.9 mm
04:55 PM 83.8°F28.8°C 71.4°F21.9°C 66% 5.5 mph N8.9 kmh N 9.8 mph15.8 kmh 29.52 in999.7 mb 0.00 in0.0 mm 0.00 in0.0 mm 0.27 in6.9 mm
05:00 PM 83.7°F28.7°C 70.6°F21.4°C 65% 2.6 mph NE4.2 kmh NE 4.9 mph7.9 kmh 29.52 in999.7 mb 0.00 in0.0 mm 0.00 in0.0 mm 0.27 in6.9 mm
05:05 PM 83.8°F28.8°C 70.1°F21.2°C 64% 4.1 mph ENE6.6 kmh ENE 12.3 mph19.8 kmh 29.51 in999.3 mb 0.00 in0.0 mm 0.00 in0.0 mm 0.27 in6.9 mm
05:10 PM 83.8°F28.8°C 70.6°F21.4°C 65% 4.2 mph NE6.8 kmh NE 12.3 mph19.8 kmh 29.51 in999.3 mb 0.00 in0.0 mm 0.00 in0.0 mm 0.27 in6.9 mm
05:15 PM 83.7°F28.7°C 70.5°F21.4°C 65% 4.7 mph NE7.6 kmh NE 9.8 mph15.8 kmh 29.51 in999.3 mb 0.00 in0.0 mm 0.00 in0.0 mm 0.27 in6.9 mm
05:20 PM 83.3°F28.5°C 69.5°F20.8°C 63% 4.9 mph NE7.9 kmh NE 9.8 mph15.8 kmh 29.51 in999.3 mb 0.00 in0.0 mm 0.00 in0.0 mm 0.27 in6.9 mm
05:25 PM 83.2°F28.4°C 69.3°F20.7°C 63% 3.1 mph N5.0 kmh N 9.8 mph15.8 kmh 29.50 in999.0 mb 0.00 in0.0 mm 0.00 in0.0 mm 0.27 in6.9 mm
05:30 PM 83.3°F28.5°C 69.4°F20.8°C 63% 2.9 mph NE4.7 kmh NE 7.4 mph11.9 kmh 29.50 in999.0 mb 0.00 in0.0 mm 0.00 in0.0 mm 0.27 in6.9 mm
05:35 PM 83.5°F28.6°C 69.7°F20.9°C 64% 1.7 mph NE2.7 kmh NE 4.9 mph7.9 kmh 29.50 in999.0 mb 0.00 in0.0 mm 0.00 in0.0 mm 0.27 in6.9 mm
05:40 PM 83.1°F28.4°C 70.0°F21.1°C 65% 3.5 mph NE5.6 kmh NE 9.8 mph15.8 kmh 29.49 in998.6 mb 0.00 in0.0 mm 0.00 in0.0 mm 0.27 in6.9 mm
05:45 PM 82.9°F28.3°C 69.4°F20.8°C 64% 5.1 mph NE8.2 kmh NE 9.8 mph15.8 kmh 29.49 in998.6 mb 0.00 in0.0 mm 0.00 in0.0 mm 0.27 in6.9 mm
05:50 PM 83.0°F28.3°C 69.3°F20.7°C 64% 3.6 mph ENE5.8 kmh ENE 7.4 mph11.9 kmh 29.49 in998.6 mb 0.00 in0.0 mm 0.00 in0.0 mm 0.27 in6.9 mm
05:55 PM 83.1°F28.4°C 69.4°F20.8°C 64% 4.1 mph NE6.6 kmh NE 7.4 mph11.9 kmh 29.49 in998.6 mb 0.00 in0.0 mm 0.00 in0.0 mm 0.27 in6.9 mm
06:00 PM 82.9°F28.3°C 70.3°F21.3°C 66% 4.0 mph NE6.4 kmh NE 7.4 mph11.9 kmh 29.49 in998.6 mb 0.00 in0.0 mm 0.00 in0.0 mm 0.27 in6.9 mm
06:05 PM 82.6°F28.1°C 69.8°F21.0°C 65% 2.9 mph NE4.7 kmh NE 7.4 mph11.9 kmh 29.49 in998.6 mb 0.00 in0.0 mm 0.00 in0.0 mm 0.27 in6.9 mm
06:10 PM 82.6°F28.1°C 69.6°F20.9°C 65% 3.1 mph N5.0 kmh N 7.4 mph11.9 kmh 29.49 in998.6 mb 0.00 in0.0 mm 0.00 in0.0 mm 0.27 in6.9 mm
06:15 PM 82.6°F28.1°C 69.6°F20.9°C 65% 3.2 mph NNE5.1 kmh NNE 7.4 mph11.9 kmh 29.49 in998.6 mb 0.00 in0.0 mm 0.00 in0.0 mm 0.27 in6.9 mm
06:20 PM 82.9°F28.3°C 69.8°F21.0°C 65% 3.9 mph NNE6.3 kmh NNE 7.4 mph11.9 kmh 29.49 in998.6 mb 0.00 in0.0 mm 0.00 in0.0 mm 0.27 in6.9 mm
06:25 PM 83.1°F28.4°C 69.6°F20.9°C 64% 2.2 mph E3.5 kmh E 7.4 mph11.9 kmh 29.49 in998.6 mb 0.00 in0.0 mm 0.00 in0.0 mm 0.27 in6.9 mm
06:30 PM 83.1°F28.4°C 69.4°F20.8°C 64% 1.4 mph NE2.3 kmh NE 4.9 mph7.9 kmh 29.49 in998.6 mb 0.00 in0.0 mm 0.00 in0.0 mm 0.27 in6.9 mm
06:35 PM 83.3°F28.5°C 69.8°F21.0°C 64% 2.8 mph N4.5 kmh N 7.4 mph11.9 kmh 29.49 in998.6 mb 0.00 in0.0 mm 0.00 in0.0 mm 0.27 in6.9 mm
06:40 PM 83.3°F28.5°C 70.0°F21.1°C 64% 1.7 mph NNE2.7 kmh NNE 4.9 mph7.9 kmh 29.49 in998.6 mb 0.00 in0.0 mm 0.00 in0.0 mm 0.27 in6.9 mm
06:45 PM 83.3°F28.5°C 70.3°F21.3°C 65% 2.4 mph NNE3.9 kmh NNE 4.9 mph7.9 kmh 29.48 in998.3 mb 0.00 in0.0 mm 0.00 in0.0 mm 0.27 in6.9 mm
06:50 PM 83.3°F28.5°C 70.3°F21.3°C 65% 3.8 mph N6.1 kmh N 7.4 mph11.9 kmh 29.48 in998.3 mb 0.00 in0.0 mm 0.00 in0.0 mm 0.27 in6.9 mm
06:55 PM 83.1°F28.4°C 70.1°F21.2°C 65% 3.7 mph NE6.0 kmh NE 9.8 mph15.8 kmh 29.48 in998.3 mb 0.00 in0.0 mm 0.00 in0.0 mm 0.27 in6.9 mm
07:00 PM 82.7°F28.2°C 70.2°F21.2°C 66% 3.2 mph ENE5.1 kmh ENE 7.4 mph11.9 kmh 29.48 in998.3 mb 0.00 in0.0 mm 0.00 in0.0 mm 0.27 in6.9 mm
07:05 PM 82.0°F27.8°C 69.9°F21.1°C 67% 3.4 mph NE5.5 kmh NE 9.8 mph15.8 kmh 29.48 in998.3 mb 0.00 in0.0 mm 0.00 in0.0 mm 0.27 in6.9 mm
07:10 PM 82.0°F27.8°C 69.9°F21.1°C 67% 3.2 mph N5.1 kmh N 7.4 mph11.9 kmh 29.48 in998.3 mb 0.00 in0.0 mm 0.00 in0.0 mm 0.27 in6.9 mm
07:15 PM 82.0°F27.8°C 69.8°F21.0°C 67% 3.7 mph E6.0 kmh E 7.4 mph11.9 kmh 29.48 in998.3 mb 0.00 in0.0 mm 0.00 in0.0 mm 0.27 in6.9 mm
07:20 PM 82.0°F27.8°C 69.7°F20.9°C 66% 2.7 mph NE4.3 kmh NE 7.4 mph11.9 kmh 29.48 in998.3 mb 0.00 in0.0 mm 0.00 in0.0 mm 0.27 in6.9 mm
07:25 PM 82.0°F27.8°C 69.6°F20.9°C 66% 0.9 mph E1.4 kmh E 4.9 mph7.9 kmh 29.48 in998.3 mb 0.00 in0.0 mm 0.00 in0.0 mm 0.27 in6.9 mm
07:30 PM 82.0°F27.8°C 70.2°F21.2°C 68% 2.4 mph E3.9 kmh E 7.4 mph11.9 kmh 29.49 in998.6 mb 0.00 in0.0 mm 0.00 in0.0 mm 0.27 in6.9 mm
07:35 PM 82.0°F27.8°C 70.2°F21.2°C 68% 1.6 mph NE2.6 kmh NE 7.4 mph11.9 kmh 29.48 in998.3 mb 0.00 in0.0 mm 0.00 in0.0 mm 0.27 in6.9 mm
07:40 PM 81.9°F27.7°C 70.3°F21.3°C 68% 1.7 mph E2.7 kmh E 4.9 mph7.9 kmh 29.48 in998.3 mb 0.00 in0.0 mm 0.00 in0.0 mm 0.27 in6.9 mm
07:45 PM 81.5°F27.5°C 69.9°F21.1°C 68% 1.5 mph NE2.4 kmh NE 4.9 mph7.9 kmh 29.48 in998.3 mb 0.00 in0.0 mm 0.00 in0.0 mm 0.27 in6.9 mm
07:50 PM 81.5°F27.5°C 70.3°F21.3°C 69% 1.1 mph ENE1.8 kmh ENE 4.9 mph7.9 kmh 29.48 in998.3 mb 0.00 in0.0 mm 0.00 in0.0 mm 0.27 in6.9 mm
07:55 PM 81.3°F27.4°C 70.1°F21.2°C 69% 3.5 mph ENE5.6 kmh ENE 4.9 mph7.9 kmh 29.49 in998.6 mb 0.00 in0.0 mm 0.00 in0.0 mm 0.27 in6.9 mm
08:00 PM 81.1°F27.3°C 70.1°F21.2°C 69% 1.5 mph NNE2.4 kmh NNE 4.9 mph7.9 kmh 29.48 in998.3 mb 0.00 in0.0 mm 0.00 in0.0 mm 0.27 in6.9 mm
08:05 PM 80.8°F27.1°C 70.1°F21.2°C 70% 2.3 mph NNE3.7 kmh NNE 4.9 mph7.9 kmh 29.49 in998.6 mb 0.00 in0.0 mm 0.00 in0.0 mm 0.27 in6.9 mm
08:10 PM 80.8°F27.1°C 70.5°F21.4°C 71% 1.0 mph NNE1.6 kmh NNE 2.5 mph4.0 kmh 29.49 in998.6 mb 0.00 in0.0 mm 0.00 in0.0 mm 0.27 in6.9 mm
08:15 PM 80.6°F27.0°C 70.3°F21.3°C 71% 1.3 mph NE2.1 kmh NE 4.9 mph7.9 kmh 29.49 in998.6 mb 0.00 in0.0 mm 0.00 in0.0 mm 0.27 in6.9 mm
08:20 PM 80.2°F26.8°C 70.4°F21.3°C 72% 1.2 mph NNE1.9 kmh NNE 4.9 mph7.9 kmh 29.49 in998.6 mb 0.00 in0.0 mm 0.00 in0.0 mm 0.27 in6.9 mm
08:25 PM 79.5°F26.4°C 70.1°F21.2°C 73% 0.8 mph N1.3 kmh N 4.9 mph7.9 kmh 29.49 in998.6 mb 0.00 in0.0 mm 0.00 in0.0 mm 0.27 in6.9 mm
08:30 PM 79.5°F26.4°C 70.1°F21.2°C 73% 0.4 mph N0.6 kmh N 2.5 mph4.0 kmh 29.49 in998.6 mb 0.00 in0.0 mm 0.00 in0.0 mm 0.27 in6.9 mm
08:35 PM 79.4°F26.3°C 70.2°F21.2°C 74% 0.4 mph NNE0.6 kmh NNE 2.5 mph4.0 kmh 29.50 in999.0 mb 0.00 in0.0 mm 0.00 in0.0 mm 0.27 in6.9 mm
08:40 PM 79.3°F26.3°C 70.3°F21.3°C 74% 0.6 mph NW1.0 kmh NW 2.5 mph4.0 kmh 29.49 in998.6 mb 0.00 in0.0 mm 0.00 in0.0 mm 0.27 in6.9 mm
08:45 PM 79.3°F26.3°C 69.9°F21.1°C 73% 2.2 mph ENE3.5 kmh ENE 7.4 mph11.9 kmh 29.49 in998.6 mb 0.00 in0.0 mm 0.00 in0.0 mm 0.27 in6.9 mm
08:50 PM 79.3°F26.3°C 69.9°F21.1°C 73% 1.6 mph E2.6 kmh E 4.9 mph7.9 kmh 29.50 in999.0 mb 0.00 in0.0 mm 0.00 in0.0 mm 0.27 in6.9 mm
08:55 PM 79.3°F26.3°C 69.9°F21.1°C 73% 1.8 mph NE2.9 kmh NE 4.9 mph7.9 kmh 29.50 in999.0 mb 0.00 in0.0 mm 0.00 in0.0 mm 0.27 in6.9 mm
09:00 PM 79.3°F26.3°C 70.0°F21.1°C 73% 0.4 mph ENE0.6 kmh ENE 2.5 mph4.0 kmh 29.50 in999.0 mb 0.00 in0.0 mm 0.00 in0.0 mm 0.27 in6.9 mm
09:05 PM 79.2°F26.2°C 70.2°F21.2°C 74% 1.3 mph NE2.1 kmh NE 4.9 mph7.9 kmh 29.50 in999.0 mb 0.00 in0.0 mm 0.00 in0.0 mm 0.27 in6.9 mm
09:10 PM 79.2°F26.2°C 70.2°F21.2°C 74% 2.5 mph NE4.0 kmh NE 4.9 mph7.9 kmh 29.50 in999.0 mb 0.00 in0.0 mm 0.00 in0.0 mm 0.27 in6.9 mm
09:15 PM 79.2°F26.2°C 70.1°F21.2°C 74% 2.6 mph ENE4.2 kmh ENE 4.9 mph7.9 kmh 29.50 in999.0 mb 0.00 in0.0 mm 0.00 in0.0 mm 0.27 in6.9 mm
09:20 PM 79.0°F26.1°C 70.0°F21.1°C 74% 0.7 mph N1.1 kmh N 2.5 mph4.0 kmh 29.50 in999.0 mb 0.00 in0.0 mm 0.00 in0.0 mm 0.27 in6.9 mm
09:25 PM 78.8°F26.0°C 69.8°F21.0°C 74% 2.9 mph ENE4.7 kmh ENE 7.4 mph11.9 kmh 29.50 in999.0 mb 0.00 in0.0 mm 0.00 in0.0 mm 0.27 in6.9 mm
09:30 PM 78.8°F26.0°C 70.4°F21.3°C 76% 2.2 mph NE3.5 kmh NE 7.4 mph11.9 kmh 29.50 in999.0 mb 0.00 in0.0 mm 0.00 in0.0 mm 0.27 in6.9 mm
09:35 PM 78.8°F26.0°C 70.6°F21.4°C 76% 2.1 mph NE3.4 kmh NE 7.4 mph11.9 kmh 29.51 in999.3 mb 0.00 in0.0 mm 0.00 in0.0 mm 0.27 in6.9 mm
09:40 PM 78.7°F25.9°C 70.7°F21.5°C 76% 0.5 mph ESE0.8 kmh ESE 2.5 mph4.0 kmh 29.51 in999.3 mb 0.00 in0.0 mm 0.00 in0.0 mm 0.27 in6.9 mm
09:45 PM 78.6°F25.9°C 70.8°F21.6°C 77% 2.2 mph ENE3.5 kmh ENE 7.4 mph11.9 kmh 29.51 in999.3 mb 0.00 in0.0 mm 0.00 in0.0 mm 0.27 in6.9 mm
09:50 PM 78.6°F25.9°C 70.8°F21.6°C 77% 2.4 mph E3.9 kmh E 4.9 mph7.9 kmh 29.51 in999.3 mb 0.00 in0.0 mm 0.00 in0.0 mm 0.27 in6.9 mm
09:55 PM 78.6°F25.9°C 70.8°F21.6°C 77% 3.2 mph ENE5.1 kmh ENE 7.4 mph11.9 kmh 29.52 in999.7 mb 0.00 in0.0 mm 0.00 in0.0 mm 0.27 in6.9 mm
10:00 PM 78.6°F25.9°C 70.8°F21.6°C 77% 3.0 mph E4.8 kmh E 7.4 mph11.9 kmh 29.51 in999.3 mb 0.00 in0.0 mm 0.00 in0.0 mm 0.27 in6.9 mm
10:05 PM 78.6°F25.9°C 70.8°F21.6°C 77% 2.6 mph ENE4.2 kmh ENE 4.9 mph7.9 kmh 29.52 in999.7 mb 0.00 in0.0 mm 0.00 in0.0 mm 0.27 in6.9 mm
10:10 PM 78.6°F25.9°C 70.8°F21.6°C 77% 2.6 mph E4.2 kmh E 4.9 mph7.9 kmh 29.52 in999.7 mb 0.00 in0.0 mm 0.00 in0.0 mm 0.27 in6.9 mm
10:15 PM 78.5°F25.8°C 71.0°F21.7°C 78% 3.4 mph ENE5.5 kmh ENE 7.4 mph11.9 kmh 29.52 in999.7 mb 0.00 in0.0 mm 0.00 in0.0 mm 0.27 in6.9 mm
10:20 PM 78.4°F25.8°C 70.9°F21.6°C 78% 1.8 mph ESE2.9 kmh ESE 4.9 mph7.9 kmh 29.52 in999.7 mb 0.00 in0.0 mm 0.00 in0.0 mm 0.27 in6.9 mm
10:25 PM 77.2°F25.1°C 69.8°F21.0°C 78% 1.8 mph NNE2.9 kmh NNE 4.9 mph7.9 kmh 29.52 in999.7 mb 0.00 in0.0 mm 0.00 in0.0 mm 0.27 in6.9 mm
10:30 PM 77.2°F25.1°C 69.9°F21.1°C 78% 3.1 mph E5.0 kmh E 7.4 mph11.9 kmh 29.52 in999.7 mb 0.00 in0.0 mm 0.00 in0.0 mm 0.27 in6.9 mm
10:35 PM 77.2°F25.1°C 70.2°F21.2°C 79% 3.3 mph E5.3 kmh E 9.8 mph15.8 kmh 29.52 in999.7 mb 0.00 in0.0 mm 0.00 in0.0 mm 0.27 in6.9 mm
10:40 PM 77.2°F25.1°C 70.2°F21.2°C 79% 3.1 mph E5.0 kmh E 4.9 mph7.9 kmh 29.52 in999.7 mb 0.00 in0.0 mm 0.00 in0.0 mm 0.27 in6.9 mm
10:45 PM 77.2°F25.1°C 70.5°F21.4°C 80% 3.2 mph ENE5.1 kmh ENE 7.4 mph11.9 kmh 29.52 in999.7 mb 0.00 in0.0 mm 0.00 in0.0 mm 0.27 in6.9 mm
10:50 PM 77.2°F25.1°C 70.5°F21.4°C 80% 2.3 mph ESE3.7 kmh ESE 7.4 mph11.9 kmh 29.52 in999.7 mb 0.00 in0.0 mm 0.00 in0.0 mm 0.27 in6.9 mm
10:55 PM 77.2°F25.1°C 70.5°F21.4°C 80% 1.0 mph ENE1.6 kmh ENE 4.9 mph7.9 kmh 29.52 in999.7 mb 0.00 in0.0 mm 0.00 in0.0 mm 0.27 in6.9 mm
11:00 PM 77.2°F25.1°C 70.8°F21.6°C 81% 2.4 mph NE3.9 kmh NE 4.9 mph7.9 kmh 29.52 in999.7 mb 0.00 in0.0 mm 0.00 in0.0 mm 0.27 in6.9 mm
11:05 PM 77.2°F25.1°C 70.9°F21.6°C 81% 0.6 mph NNE1.0 kmh NNE 2.5 mph4.0 kmh 29.52 in999.7 mb 0.00 in0.0 mm 0.00 in0.0 mm 0.27 in6.9 mm
11:10 PM 77.2°F25.1°C 71.1°F21.7°C 82% 1.0 mph NE1.6 kmh NE 2.5 mph4.0 kmh 29.52 in999.7 mb 0.00 in0.0 mm 0.00 in0.0 mm 0.27 in6.9 mm
11:15 PM 77.0°F25.0°C 71.2°F21.8°C 82% 1.4 mph NE2.3 kmh NE 4.9 mph7.9 kmh 29.53 in1000.0 mb 0.00 in0.0 mm 0.00 in0.0 mm 0.27 in6.9 mm
11:20 PM 77.0°F25.0°C 71.4°F21.9°C 83% 1.2 mph ENE1.9 kmh ENE 4.9 mph7.9 kmh 29.53 in1000.0 mb 0.00 in0.0 mm 0.00 in0.0 mm 0.27 in6.9 mm
11:25 PM 76.8°F24.9°C 71.7°F22.1°C 84% 1.3 mph NE2.1 kmh NE 4.9 mph7.9 kmh 29.54 in1000.3 mb 0.00 in0.0 mm 0.00 in0.0 mm 0.27 in6.9 mm
11:30 PM 76.6°F24.8°C 71.7°F22.1°C 85% 2.2 mph NE3.5 kmh NE 4.9 mph7.9 kmh 29.54 in1000.3 mb 0.00 in0.0 mm 0.00 in0.0 mm 0.27 in6.9 mm
11:35 PM 76.6°F24.8°C 71.7°F22.1°C 85% 1.8 mph NE2.9 kmh NE 4.9 mph7.9 kmh 29.54 in1000.3 mb 0.00 in0.0 mm 0.00 in0.0 mm 0.27 in6.9 mm
11:40 PM 76.6°F24.8°C 71.6°F22.0°C 85% 3.1 mph NE5.0 kmh NE 7.4 mph11.9 kmh 29.54 in1000.3 mb 0.00 in0.0 mm 0.00 in0.0 mm 0.27 in6.9 mm
11:45 PM 76.6°F24.8°C 71.4°F21.9°C 84% 1.4 mph ENE2.3 kmh ENE 7.4 mph11.9 kmh 29.54 in1000.3 mb 0.00 in0.0 mm 0.00 in0.0 mm 0.27 in6.9 mm
11:50 PM 76.5°F24.7°C 71.3°F21.8°C 84% 1.6 mph E2.6 kmh E 4.9 mph7.9 kmh 29.53 in1000.0 mb 0.00 in0.0 mm 0.00 in0.0 mm 0.27 in6.9 mm
11:55 PM 76.6°F24.8°C 71.2°F21.8°C 84% 2.5 mph E4.0 kmh E 4.9 mph7.9 kmh 29.54 in1000.3 mb 0.00 in0.0 mm 0.00 in0.0 mm 0.27 in6.9 mm